sensor_id;sensor_type;location;lat;lon;timestamp;P1;durP1;ratioP1;P2;durP2;ratioP2
22490;SDS011;11412;50.802;4.350;2023-04-24T00:01:19;16.00;;;9.93;;
22490;SDS011;11412;50.802;4.350;2023-04-24T00:03:45;15.65;;;10.80;;
22490;SDS011;11412;50.802;4.350;2023-04-24T00:06:11;16.48;;;10.45;;
22490;SDS011;11412;50.802;4.350;2023-04-24T00:08:37;17.77;;;9.20;;
22490;SDS011;11412;50.802;4.350;2023-04-24T00:11:02;14.63;;;10.55;;
22490;SDS011;11412;50.802;4.350;2023-04-24T00:13:28;12.27;;;9.90;;
22490;SDS011;11412;50.802;4.350;2023-04-24T00:15:55;20.17;;;10.43;;
22490;SDS011;11412;50.802;4.350;2023-04-24T00:18:20;16.13;;;9.70;;
22490;SDS011;11412;50.802;4.350;2023-04-24T00:20:46;18.65;;;10.43;;
22490;SDS011;11412;50.802;4.350;2023-04-24T00:23:12;19.27;;;11.13;;
22490;SDS011;11412;50.802;4.350;2023-04-24T00:25:38;24.13;;;10.68;;
22490;SDS011;11412;50.802;4.350;2023-04-24T00:28:05;14.60;;;9.77;;
22490;SDS011;11412;50.802;4.350;2023-04-24T00:30:31;11.38;;;9.75;;
22490;SDS011;11412;50.802;4.350;2023-04-24T00:32:57;14.95;;;10.52;;
22490;SDS011;11412;50.802;4.350;2023-04-24T00:35:23;17.60;;;11.13;;
22490;SDS011;11412;50.802;4.350;2023-04-24T00:37:49;15.15;;;10.80;;
22490;SDS011;11412;50.802;4.350;2023-04-24T00:40:15;17.85;;;10.35;;
22490;SDS011;11412;50.802;4.350;2023-04-24T00:42:40;20.27;;;10.27;;
22490;SDS011;11412;50.802;4.350;2023-04-24T00:45:07;19.85;;;10.68;;
22490;SDS011;11412;50.802;4.350;2023-04-24T00:47:33;22.85;;;10.98;;
22490;SDS011;11412;50.802;4.350;2023-04-24T00:50:01;15.48;;;10.45;;
22490;SDS011;11412;50.802;4.350;2023-04-24T00:52:27;13.82;;;10.25;;
22490;SDS011;11412;50.802;4.350;2023-04-24T00:54:56;17.00;;;10.73;;
22490;SDS011;11412;50.802;4.350;2023-04-24T00:57:21;18.25;;;10.50;;
22490;SDS011;11412;50.802;4.350;2023-04-24T00:59:48;17.27;;;10.75;;
22490;SDS011;11412;50.802;4.350;2023-04-24T01:02:15;16.27;;;10.75;;
22490;SDS011;11412;50.802;4.350;2023-04-24T01:04:41;15.65;;;10.55;;
22490;SDS011;11412;50.802;4.350;2023-04-24T01:07:08;16.52;;;10.70;;
22490;SDS011;11412;50.802;4.350;2023-04-24T01:09:39;15.93;;;11.55;;
22490;SDS011;11412;50.802;4.350;2023-04-24T01:12:08;17.58;;;11.38;;
22490;SDS011;11412;50.802;4.350;2023-04-24T01:14:34;22.88;;;11.70;;
22490;SDS011;11412;50.802;4.350;2023-04-24T01:17:01;21.33;;;12.07;;
22490;SDS011;11412;50.802;4.350;2023-04-24T01:19:27;20.55;;;12.35;;
22490;SDS011;11412;50.802;4.350;2023-04-24T01:21:53;17.30;;;12.02;;
22490;SDS011;11412;50.802;4.350;2023-04-24T01:24:19;16.10;;;12.43;;
22490;SDS011;11412;50.802;4.350;2023-04-24T01:26:45;19.45;;;12.05;;
22490;SDS011;11412;50.802;4.350;2023-04-24T01:29:11;16.67;;;11.73;;
22490;SDS011;11412;50.802;4.350;2023-04-24T01:31:38;20.27;;;11.75;;
22490;SDS011;11412;50.802;4.350;2023-04-24T01:34:04;16.70;;;11.15;;
22490;SDS011;11412;50.802;4.350;2023-04-24T01:36:31;15.55;;;10.55;;
22490;SDS011;11412;50.802;4.350;2023-04-24T01:38:58;14.90;;;11.18;;
22490;SDS011;11412;50.802;4.350;2023-04-24T01:41:24;14.32;;;12.05;;
22490;SDS011;11412;50.802;4.350;2023-04-24T01:43:50;16.27;;;12.18;;
22490;SDS011;11412;50.802;4.350;2023-04-24T01:46:16;14.55;;;11.20;;
22490;SDS011;11412;50.802;4.350;2023-04-24T01:48:42;16.85;;;12.77;;
22490;SDS011;11412;50.802;4.350;2023-04-24T01:51:09;20.45;;;13.00;;
22490;SDS011;11412;50.802;4.350;2023-04-24T01:53:35;16.95;;;12.25;;
22490;SDS011;11412;50.802;4.350;2023-04-24T01:56:00;19.60;;;12.65;;
22490;SDS011;11412;50.802;4.350;2023-04-24T01:58:27;22.48;;;12.95;;
22490;SDS011;11412;50.802;4.350;2023-04-24T02:00:55;18.10;;;12.43;;
22490;SDS011;11412;50.802;4.350;2023-04-24T02:03:23;15.43;;;13.52;;
22490;SDS011;11412;50.802;4.350;2023-04-24T02:05:50;19.15;;;13.75;;
22490;SDS011;11412;50.802;4.350;2023-04-24T02:08:15;18.35;;;13.70;;
22490;SDS011;11412;50.802;4.350;2023-04-24T02:10:41;19.85;;;14.20;;
22490;SDS011;11412;50.802;4.350;2023-04-24T02:13:07;19.20;;;15.35;;
22490;SDS011;11412;50.802;4.350;2023-04-24T02:15:33;18.50;;;13.93;;
22490;SDS011;11412;50.802;4.350;2023-04-24T02:17:58;22.58;;;14.25;;
22490;SDS011;11412;50.802;4.350;2023-04-24T02:20:24;22.38;;;15.68;;
22490;SDS011;11412;50.802;4.350;2023-04-24T02:22:50;22.67;;;15.57;;
22490;SDS011;11412;50.802;4.350;2023-04-24T02:25:16;23.42;;;15.30;;
22490;SDS011;11412;50.802;4.350;2023-04-24T02:27:42;17.85;;;14.25;;
22490;SDS011;11412;50.802;4.350;2023-04-24T02:30:07;20.52;;;14.27;;
22490;SDS011;11412;50.802;4.350;2023-04-24T02:32:34;22.88;;;14.65;;
22490;SDS011;11412;50.802;4.350;2023-04-24T02:34:59;16.80;;;13.70;;
22490;SDS011;11412;50.802;4.350;2023-04-24T02:37:25;20.67;;;13.15;;
22490;SDS011;11412;50.802;4.350;2023-04-24T02:39:50;18.13;;;12.73;;
22490;SDS011;11412;50.802;4.350;2023-04-24T02:42:16;16.98;;;12.93;;
22490;SDS011;11412;50.802;4.350;2023-04-24T02:44:42;15.70;;;13.40;;
22490;SDS011;11412;50.802;4.350;2023-04-24T02:47:07;17.30;;;12.32;;
22490;SDS011;11412;50.802;4.350;2023-04-24T02:49:33;21.33;;;12.95;;
22490;SDS011;11412;50.802;4.350;2023-04-24T02:51:59;19.20;;;12.93;;
22490;SDS011;11412;50.802;4.350;2023-04-24T02:54:25;18.38;;;12.85;;
22490;SDS011;11412;50.802;4.350;2023-04-24T02:56:50;18.35;;;12.50;;
22490;SDS011;11412;50.802;4.350;2023-04-24T02:59:16;16.40;;;12.02;;
22490;SDS011;11412;50.802;4.350;2023-04-24T03:01:42;16.25;;;11.57;;
22490;SDS011;11412;50.802;4.350;2023-04-24T03:04:07;16.63;;;11.05;;
22490;SDS011;11412;50.802;4.350;2023-04-24T03:06:33;14.77;;;10.35;;
22490;SDS011;11412;50.802;4.350;2023-04-24T03:09:00;12.85;;;9.88;;
22490;SDS011;11412;50.802;4.350;2023-04-24T03:11:26;14.15;;;10.43;;
22490;SDS011;11412;50.802;4.350;2023-04-24T03:13:52;13.00;;;9.88;;
22490;SDS011;11412;50.802;4.350;2023-04-24T03:16:17;12.73;;;10.35;;
22490;SDS011;11412;50.802;4.350;2023-04-24T03:18:43;15.13;;;10.25;;
22490;SDS011;11412;50.802;4.350;2023-04-24T03:21:09;17.40;;;9.90;;
22490;SDS011;11412;50.802;4.350;2023-04-24T03:23:35;14.90;;;9.50;;
22490;SDS011;11412;50.802;4.350;2023-04-24T03:26:00;12.55;;;9.65;;
22490;SDS011;11412;50.802;4.350;2023-04-24T03:28:27;15.15;;;10.32;;
22490;SDS011;11412;50.802;4.350;2023-04-24T03:30:53;14.55;;;11.13;;
22490;SDS011;11412;50.802;4.350;2023-04-24T03:33:18;13.40;;;10.57;;
22490;SDS011;11412;50.802;4.350;2023-04-24T03:35:44;12.90;;;10.05;;
22490;SDS011;11412;50.802;4.350;2023-04-24T03:38:10;16.35;;;10.00;;
22490;SDS011;11412;50.802;4.350;2023-04-24T03:40:35;13.65;;;10.65;;
22490;SDS011;11412;50.802;4.350;2023-04-24T03:43:01;14.18;;;9.65;;
22490;SDS011;11412;50.802;4.350;2023-04-24T03:45:27;13.52;;;9.57;;
22490;SDS011;11412;50.802;4.350;2023-04-24T03:47:53;13.75;;;9.27;;
22490;SDS011;11412;50.802;4.350;2023-04-24T03:50:18;12.82;;;8.45;;
22490;SDS011;11412;50.802;4.350;2023-04-24T03:52:44;9.45;;;7.10;;
22490;SDS011;11412;50.802;4.350;2023-04-24T03:55:10;7.57;;;6.72;;
22490;SDS011;11412;50.802;4.350;2023-04-24T03:57:37;8.45;;;6.47;;
22490;SDS011;11412;50.802;4.350;2023-04-24T04:00:05;8.40;;;6.45;;
22490;SDS011;11412;50.802;4.350;2023-04-24T04:02:31;7.70;;;6.13;;
22490;SDS011;11412;50.802;4.350;2023-04-24T04:04:57;5.97;;;5.47;;
22490;SDS011;11412;50.802;4.350;2023-04-24T04:07:22;8.40;;;6.47;;
22490;SDS011;11412;50.802;4.350;2023-04-24T04:09:48;8.27;;;5.53;;
22490;SDS011;11412;50.802;4.350;2023-04-24T04:12:14;6.10;;;5.50;;
22490;SDS011;11412;50.802;4.350;2023-04-24T04:14:40;7.90;;;5.93;;
22490;SDS011;11412;50.802;4.350;2023-04-24T04:17:05;6.82;;;5.03;;
22490;SDS011;11412;50.802;4.350;2023-04-24T04:19:31;5.30;;;4.80;;
22490;SDS011;11412;50.802;4.350;2023-04-24T04:21:57;5.18;;;4.43;;
22490;SDS011;11412;50.802;4.350;2023-04-24T04:24:24;6.07;;;4.25;;
22490;SDS011;11412;50.802;4.350;2023-04-24T04:26:51;6.43;;;4.78;;
22490;SDS011;11412;50.802;4.350;2023-04-24T04:29:17;6.30;;;4.63;;
22490;SDS011;11412;50.802;4.350;2023-04-24T04:31:47;7.47;;;5.20;;
22490;SDS011;11412;50.802;4.350;2023-04-24T04:34:13;6.20;;;5.15;;
22490;SDS011;11412;50.802;4.350;2023-04-24T04:36:39;5.85;;;5.05;;
22490;SDS011;11412;50.802;4.350;2023-04-24T04:39:06;6.38;;;5.13;;
22490;SDS011;11412;50.802;4.350;2023-04-24T04:41:32;7.80;;;5.20;;
22490;SDS011;11412;50.802;4.350;2023-04-24T04:44:00;5.85;;;5.35;;
22490;SDS011;11412;50.802;4.350;2023-04-24T04:46:26;6.05;;;5.47;;
22490;SDS011;11412;50.802;4.350;2023-04-24T04:48:52;7.32;;;5.10;;
22490;SDS011;11412;50.802;4.350;2023-04-24T04:51:19;9.00;;;6.50;;
22490;SDS011;11412;50.802;4.350;2023-04-24T04:53:45;9.50;;;6.78;;
22490;SDS011;11412;50.802;4.350;2023-04-24T04:56:11;8.98;;;7.10;;
22490;SDS011;11412;50.802;4.350;2023-04-24T04:58:37;9.05;;;6.97;;
22490;SDS011;11412;50.802;4.350;2023-04-24T05:01:02;10.02;;;7.20;;
22490;SDS011;11412;50.802;4.350;2023-04-24T05:03:28;13.48;;;7.10;;
22490;SDS011;11412;50.802;4.350;2023-04-24T05:05:54;10.05;;;7.47;;
22490;SDS011;11412;50.802;4.350;2023-04-24T05:08:19;10.15;;;7.82;;
22490;SDS011;11412;50.802;4.350;2023-04-24T05:10:45;11.60;;;8.63;;
22490;SDS011;11412;50.802;4.350;2023-04-24T05:13:11;15.45;;;9.70;;
22490;SDS011;11412;50.802;4.350;2023-04-24T05:15:36;13.45;;;8.98;;
22490;SDS011;11412;50.802;4.350;2023-04-24T05:18:02;15.30;;;9.48;;
22490;SDS011;11412;50.802;4.350;2023-04-24T05:20:28;12.20;;;8.65;;
22490;SDS011;11412;50.802;4.350;2023-04-24T05:22:53;13.55;;;9.18;;
22490;SDS011;11412;50.802;4.350;2023-04-24T05:25:19;14.07;;;10.07;;
22490;SDS011;11412;50.802;4.350;2023-04-24T05:27:45;19.30;;;9.50;;
22490;SDS011;11412;50.802;4.350;2023-04-24T05:30:11;10.20;;;9.02;;
22490;SDS011;11412;50.802;4.350;2023-04-24T05:32:37;13.77;;;9.73;;
22490;SDS011;11412;50.802;4.350;2023-04-24T05:35:03;13.65;;;10.32;;
22490;SDS011;11412;50.802;4.350;2023-04-24T05:37:29;18.20;;;10.30;;
22490;SDS011;11412;50.802;4.350;2023-04-24T05:39:55;11.73;;;9.40;;
22490;SDS011;11412;50.802;4.350;2023-04-24T05:42:21;15.40;;;10.13;;
22490;SDS011;11412;50.802;4.350;2023-04-24T05:44:46;15.88;;;9.65;;
22490;SDS011;11412;50.802;4.350;2023-04-24T05:47:12;14.07;;;10.15;;
22490;SDS011;11412;50.802;4.350;2023-04-24T05:49:38;10.38;;;9.25;;
22490;SDS011;11412;50.802;4.350;2023-04-24T05:52:04;13.50;;;9.90;;
22490;SDS011;11412;50.802;4.350;2023-04-24T05:54:31;13.18;;;8.93;;
22490;SDS011;11412;50.802;4.350;2023-04-24T05:56:57;13.68;;;9.27;;
22490;SDS011;11412;50.802;4.350;2023-04-24T05:59:23;14.23;;;9.98;;
22490;SDS011;11412;50.802;4.350;2023-04-24T06:01:49;12.43;;;9.40;;
22490;SDS011;11412;50.802;4.350;2023-04-24T06:04:15;17.10;;;9.43;;
22490;SDS011;11412;50.802;4.350;2023-04-24T06:06:40;12.52;;;9.32;;
22490;SDS011;11412;50.802;4.350;2023-04-24T06:09:06;14.82;;;9.80;;
22490;SDS011;11412;50.802;4.350;2023-04-24T06:11:32;11.07;;;9.43;;
22490;SDS011;11412;50.802;4.350;2023-04-24T06:13:58;14.75;;;9.18;;
22490;SDS011;11412;50.802;4.350;2023-04-24T06:16:24;17.25;;;9.80;;
22490;SDS011;11412;50.802;4.350;2023-04-24T06:18:49;12.95;;;9.57;;
22490;SDS011;11412;50.802;4.350;2023-04-24T06:21:15;16.42;;;9.93;;
22490;SDS011;11412;50.802;4.350;2023-04-24T06:23:41;15.15;;;10.02;;
22490;SDS011;11412;50.802;4.350;2023-04-24T06:26:07;16.85;;;10.48;;
22490;SDS011;11412;50.802;4.350;2023-04-24T06:28:33;14.82;;;10.18;;
22490;SDS011;11412;50.802;4.350;2023-04-24T06:30:58;16.17;;;9.90;;
22490;SDS011;11412;50.802;4.350;2023-04-24T06:33:24;15.30;;;10.15;;
22490;SDS011;11412;50.802;4.350;2023-04-24T06:35:50;14.63;;;10.25;;
22490;SDS011;11412;50.802;4.350;2023-04-24T06:38:15;17.27;;;10.63;;
22490;SDS011;11412;50.802;4.350;2023-04-24T06:40:41;18.23;;;11.90;;
22490;SDS011;11412;50.802;4.350;2023-04-24T06:43:07;21.83;;;11.55;;
22490;SDS011;11412;50.802;4.350;2023-04-24T06:45:33;17.33;;;11.20;;
22490;SDS011;11412;50.802;4.350;2023-04-24T06:47:58;15.77;;;11.68;;
22490;SDS011;11412;50.802;4.350;2023-04-24T06:50:24;15.35;;;11.30;;
22490;SDS011;11412;50.802;4.350;2023-04-24T06:52:50;17.00;;;11.90;;
22490;SDS011;11412;50.802;4.350;2023-04-24T06:55:16;14.90;;;12.65;;
22490;SDS011;11412;50.802;4.350;2023-04-24T06:57:42;19.58;;;12.38;;
22490;SDS011;11412;50.802;4.350;2023-04-24T07:00:09;17.05;;;13.35;;
22490;SDS011;11412;50.802;4.350;2023-04-24T07:02:35;22.50;;;13.05;;
22490;SDS011;11412;50.802;4.350;2023-04-24T07:05:00;18.23;;;12.68;;
22490;SDS011;11412;50.802;4.350;2023-04-24T07:07:26;20.45;;;13.27;;
22490;SDS011;11412;50.802;4.350;2023-04-24T07:09:52;21.17;;;12.52;;
22490;SDS011;11412;50.802;4.350;2023-04-24T07:12:19;20.15;;;13.25;;
22490;SDS011;11412;50.802;4.350;2023-04-24T07:14:46;23.50;;;12.73;;
22490;SDS011;11412;50.802;4.350;2023-04-24T07:17:13;19.67;;;12.88;;
22490;SDS011;11412;50.802;4.350;2023-04-24T07:19:39;21.65;;;12.73;;
22490;SDS011;11412;50.802;4.350;2023-04-24T07:22:05;23.38;;;12.70;;
22490;SDS011;11412;50.802;4.350;2023-04-24T07:24:31;19.13;;;12.02;;
22490;SDS011;11412;50.802;4.350;2023-04-24T07:26:59;21.45;;;13.63;;
22490;SDS011;11412;50.802;4.350;2023-04-24T07:29:28;21.15;;;12.00;;
22490;SDS011;11412;50.802;4.350;2023-04-24T07:31:54;22.98;;;11.52;;
22490;SDS011;11412;50.802;4.350;2023-04-24T07:34:19;22.27;;;12.85;;
22490;SDS011;11412;50.802;4.350;2023-04-24T07:36:45;15.88;;;12.07;;
22490;SDS011;11412;50.802;4.350;2023-04-24T07:39:11;16.67;;;12.00;;
22490;SDS011;11412;50.802;4.350;2023-04-24T07:41:37;20.50;;;12.45;;
22490;SDS011;11412;50.802;4.350;2023-04-24T07:44:03;18.83;;;11.65;;
22490;SDS011;11412;50.802;4.350;2023-04-24T07:46:29;17.63;;;12.35;;
22490;SDS011;11412;50.802;4.350;2023-04-24T07:48:55;22.13;;;13.18;;
22490;SDS011;11412;50.802;4.350;2023-04-24T07:51:21;21.10;;;12.73;;
22490;SDS011;11412;50.802;4.350;2023-04-24T07:53:47;22.15;;;12.65;;
22490;SDS011;11412;50.802;4.350;2023-04-24T07:56:12;17.25;;;12.55;;
22490;SDS011;11412;50.802;4.350;2023-04-24T07:58:38;21.08;;;12.48;;
22490;SDS011;11412;50.802;4.350;2023-04-24T08:01:04;19.02;;;11.70;;
22490;SDS011;11412;50.802;4.350;2023-04-24T08:03:30;18.73;;;10.65;;
22490;SDS011;11412;50.802;4.350;2023-04-24T08:05:56;23.25;;;11.23;;
22490;SDS011;11412;50.802;4.350;2023-04-24T08:08:22;16.00;;;9.55;;
22490;SDS011;11412;50.802;4.350;2023-04-24T08:10:48;13.02;;;8.10;;
22490;SDS011;11412;50.802;4.350;2023-04-24T08:13:14;12.82;;;8.73;;
22490;SDS011;11412;50.802;4.350;2023-04-24T08:15:40;19.80;;;8.43;;
22490;SDS011;11412;50.802;4.350;2023-04-24T08:18:06;15.00;;;7.95;;
22490;SDS011;11412;50.802;4.350;2023-04-24T08:20:32;16.50;;;8.10;;
22490;SDS011;11412;50.802;4.350;2023-04-24T08:22:58;13.85;;;7.43;;
22490;SDS011;11412;50.802;4.350;2023-04-24T08:25:23;11.07;;;7.07;;
22490;SDS011;11412;50.802;4.350;2023-04-24T08:27:50;12.80;;;7.70;;
22490;SDS011;11412;50.802;4.350;2023-04-24T08:30:16;12.20;;;7.40;;
22490;SDS011;11412;50.802;4.350;2023-04-24T08:32:42;13.07;;;8.15;;
22490;SDS011;11412;50.802;4.350;2023-04-24T08:35:08;13.13;;;7.25;;
22490;SDS011;11412;50.802;4.350;2023-04-24T08:37:35;14.30;;;7.10;;
22490;SDS011;11412;50.802;4.350;2023-04-24T08:40:01;9.98;;;6.43;;
22490;SDS011;11412;50.802;4.350;2023-04-24T08:42:36;16.80;;;6.93;;
22490;SDS011;11412;50.802;4.350;2023-04-24T08:45:02;15.38;;;7.30;;
22490;SDS011;11412;50.802;4.350;2023-04-24T08:47:28;13.45;;;7.53;;
22490;SDS011;11412;50.802;4.350;2023-04-24T08:49:55;14.93;;;6.60;;
22490;SDS011;11412;50.802;4.350;2023-04-24T08:52:21;12.20;;;5.90;;
22490;SDS011;11412;50.802;4.350;2023-04-24T08:54:47;13.23;;;5.97;;
22490;SDS011;11412;50.802;4.350;2023-04-24T08:57:14;11.25;;;5.20;;
22490;SDS011;11412;50.802;4.350;2023-04-24T08:59:40;7.43;;;4.97;;
22490;SDS011;11412;50.802;4.350;2023-04-24T09:02:06;9.95;;;5.05;;
22490;SDS011;11412;50.802;4.350;2023-04-24T09:04:34;8.13;;;4.70;;
22490;SDS011;11412;50.802;4.350;2023-04-24T09:07:01;7.97;;;4.53;;
22490;SDS011;11412;50.802;4.350;2023-04-24T09:09:30;6.28;;;3.83;;
22490;SDS011;11412;50.802;4.350;2023-04-24T09:11:57;8.80;;;4.50;;
22490;SDS011;11412;50.802;4.350;2023-04-24T09:14:23;6.40;;;4.00;;
22490;SDS011;11412;50.802;4.350;2023-04-24T09:16:50;8.43;;;3.80;;
22490;SDS011;11412;50.802;4.350;2023-04-24T09:19:16;11.32;;;4.25;;
22490;SDS011;11412;50.802;4.350;2023-04-24T09:21:42;9.05;;;4.28;;
22490;SDS011;11412;50.802;4.350;2023-04-24T09:24:15;7.07;;;4.00;;
22490;SDS011;11412;50.802;4.350;2023-04-24T09:26:47;8.38;;;3.67;;
22490;SDS011;11412;50.802;4.350;2023-04-24T09:29:17;7.00;;;3.60;;
22490;SDS011;11412;50.802;4.350;2023-04-24T09:31:44;8.65;;;3.90;;
22490;SDS011;11412;50.802;4.350;2023-04-24T09:34:10;13.50;;;5.00;;
22490;SDS011;11412;50.802;4.350;2023-04-24T09:36:37;9.20;;;4.88;;
22490;SDS011;11412;50.802;4.350;2023-04-24T09:39:06;9.68;;;4.22;;
22490;SDS011;11412;50.802;4.350;2023-04-24T09:41:46;8.45;;;4.07;;
22490;SDS011;11412;50.802;4.350;2023-04-24T09:44:26;9.27;;;4.45;;
22490;SDS011;11412;50.802;4.350;2023-04-24T09:46:56;10.05;;;4.18;;
22490;SDS011;11412;50.802;4.350;2023-04-24T09:49:29;7.75;;;3.95;;
22490;SDS011;11412;50.802;4.350;2023-04-24T09:52:04;11.05;;;3.58;;
22490;SDS011;11412;50.802;4.350;2023-04-24T09:54:31;7.13;;;3.88;;
22490;SDS011;11412;50.802;4.350;2023-04-24T09:56:57;8.57;;;3.50;;
22490;SDS011;11412;50.802;4.350;2023-04-24T09:59:23;7.82;;;3.63;;
22490;SDS011;11412;50.802;4.350;2023-04-24T10:01:48;9.18;;;4.00;;
22490;SDS011;11412;50.802;4.350;2023-04-24T10:04:33;6.22;;;3.22;;
22490;SDS011;11412;50.802;4.350;2023-04-24T10:06:59;6.80;;;3.60;;
22490;SDS011;11412;50.802;4.350;2023-04-24T10:09:28;6.03;;;3.25;;
22490;SDS011;11412;50.802;4.350;2023-04-24T10:11:54;11.00;;;4.18;;
22490;SDS011;11412;50.802;4.350;2023-04-24T10:14:21;10.60;;;3.60;;
22490;SDS011;11412;50.802;4.350;2023-04-24T10:16:49;6.68;;;3.47;;
22490;SDS011;11412;50.802;4.350;2023-04-24T10:19:17;9.07;;;4.13;;
22490;SDS011;11412;50.802;4.350;2023-04-24T10:21:46;7.15;;;3.67;;
22490;SDS011;11412;50.802;4.350;2023-04-24T10:24:15;10.10;;;4.72;;
22490;SDS011;11412;50.802;4.350;2023-04-24T10:26:43;9.52;;;4.03;;
22490;SDS011;11412;50.802;4.350;2023-04-24T10:29:10;7.93;;;4.78;;
22490;SDS011;11412;50.802;4.350;2023-04-24T10:31:37;5.60;;;3.90;;
22490;SDS011;11412;50.802;4.350;2023-04-24T10:34:07;5.63;;;4.63;;
22490;SDS011;11412;50.802;4.350;2023-04-24T10:36:35;8.70;;;4.25;;
22490;SDS011;11412;50.802;4.350;2023-04-24T10:39:06;6.55;;;4.28;;
22490;SDS011;11412;50.802;4.350;2023-04-24T10:41:36;8.40;;;4.00;;
22490;SDS011;11412;50.802;4.350;2023-04-24T10:44:09;10.90;;;3.70;;
22490;SDS011;11412;50.802;4.350;2023-04-24T10:46:36;10.00;;;4.28;;
22490;SDS011;11412;50.802;4.350;2023-04-24T10:49:04;10.95;;;4.50;;
22490;SDS011;11412;50.802;4.350;2023-04-24T10:51:49;8.93;;;3.95;;
22490;SDS011;11412;50.802;4.350;2023-04-24T10:54:24;8.88;;;4.38;;
22490;SDS011;11412;50.802;4.350;2023-04-24T10:59:47;8.00;;;4.20;;
22490;SDS011;11412;50.802;4.350;2023-04-24T11:02:14;10.80;;;4.38;;
22490;SDS011;11412;50.802;4.350;2023-04-24T11:04:41;7.88;;;4.70;;
22490;SDS011;11412;50.802;4.350;2023-04-24T11:07:13;5.55;;;4.57;;
22490;SDS011;11412;50.802;4.350;2023-04-24T11:09:38;7.45;;;5.03;;
22490;SDS011;11412;50.802;4.350;2023-04-24T11:12:09;7.70;;;5.35;;
22490;SDS011;11412;50.802;4.350;2023-04-24T11:17:33;6.55;;;5.03;;
22490;SDS011;11412;50.802;4.350;2023-04-24T11:20:03;8.23;;;4.30;;
22490;SDS011;11412;50.802;4.350;2023-04-24T11:22:33;6.72;;;4.75;;
22490;SDS011;11412;50.802;4.350;2023-04-24T11:25:01;9.30;;;4.55;;
22490;SDS011;11412;50.802;4.350;2023-04-24T11:27:31;7.65;;;4.40;;
22490;SDS011;11412;50.802;4.350;2023-04-24T11:30:08;7.38;;;4.35;;
22490;SDS011;11412;50.802;4.350;2023-04-24T11:32:36;5.97;;;4.63;;
22490;SDS011;11412;50.802;4.350;2023-04-24T11:40:05;10.23;;;5.10;;
22490;SDS011;11412;50.802;4.350;2023-04-24T11:42:36;6.72;;;5.28;;
22490;SDS011;11412;50.802;4.350;2023-04-24T11:45:07;9.32;;;5.70;;
22490;SDS011;11412;50.802;4.350;2023-04-24T11:47:40;7.43;;;5.70;;
22490;SDS011;11412;50.802;4.350;2023-04-24T11:50:07;6.50;;;4.72;;
22490;SDS011;11412;50.802;4.350;2023-04-24T11:52:38;7.32;;;5.03;;
22490;SDS011;11412;50.802;4.350;2023-04-24T11:57:44;9.60;;;5.80;;
22490;SDS011;11412;50.802;4.350;2023-04-24T12:00:18;7.40;;;5.68;;
22490;SDS011;11412;50.802;4.350;2023-04-24T12:02:44;8.88;;;6.15;;
22490;SDS011;11412;50.802;4.350;2023-04-24T12:05:20;8.10;;;5.90;;
22490;SDS011;11412;50.802;4.350;2023-04-24T12:07:46;6.32;;;5.00;;
22490;SDS011;11412;50.802;4.350;2023-04-24T12:10:12;9.20;;;5.47;;
22490;SDS011;11412;50.802;4.350;2023-04-24T12:12:38;5.65;;;4.95;;
22490;SDS011;11412;50.802;4.350;2023-04-24T12:15:07;13.15;;;5.85;;
22490;SDS011;11412;50.802;4.350;2023-04-24T12:17:34;7.32;;;4.85;;
22490;SDS011;11412;50.802;4.350;2023-04-24T12:20:02;7.10;;;5.10;;
22490;SDS011;11412;50.802;4.350;2023-04-24T12:25:15;6.80;;;4.82;;
22490;SDS011;11412;50.802;4.350;2023-04-24T12:27:41;8.75;;;5.15;;
22490;SDS011;11412;50.802;4.350;2023-04-24T12:30:15;6.53;;;5.47;;
22490;SDS011;11412;50.802;4.350;2023-04-24T12:32:45;7.72;;;5.50;;
22490;SDS011;11412;50.802;4.350;2023-04-24T12:35:18;8.02;;;4.80;;
22490;SDS011;11412;50.802;4.350;2023-04-24T12:37:45;5.30;;;4.80;;
22490;SDS011;11412;50.802;4.350;2023-04-24T12:40:11;5.30;;;4.80;;
22490;SDS011;11412;50.802;4.350;2023-04-24T12:42:56;5.47;;;4.93;;
22490;SDS011;11412;50.802;4.350;2023-04-24T12:45:21;6.70;;;4.50;;
22490;SDS011;11412;50.802;4.350;2023-04-24T12:47:49;5.18;;;4.70;;
22490;SDS011;11412;50.802;4.350;2023-04-24T12:50:15;7.28;;;4.90;;
22490;SDS011;11412;50.802;4.350;2023-04-24T12:52:41;6.75;;;4.20;;
22490;SDS011;11412;50.802;4.350;2023-04-24T12:55:08;5.95;;;4.15;;
22490;SDS011;11412;50.802;4.350;2023-04-24T12:57:34;7.63;;;4.53;;
22490;SDS011;11412;50.802;4.350;2023-04-24T13:00:01;4.75;;;4.22;;
22490;SDS011;11412;50.802;4.350;2023-04-24T13:02:30;4.57;;;4.15;;
22490;SDS011;11412;50.802;4.350;2023-04-24T13:04:57;5.70;;;3.95;;
22490;SDS011;11412;50.802;4.350;2023-04-24T13:07:23;4.05;;;3.58;;
22490;SDS011;11412;50.802;4.350;2023-04-24T13:09:50;4.85;;;4.35;;
22490;SDS011;11412;50.802;4.350;2023-04-24T13:12:16;5.55;;;3.75;;
22490;SDS011;11412;50.802;4.350;2023-04-24T13:14:43;5.55;;;3.50;;
22490;SDS011;11412;50.802;4.350;2023-04-24T13:17:09;6.18;;;3.25;;
22490;SDS011;11412;50.802;4.350;2023-04-24T13:19:37;3.97;;;3.35;;
22490;SDS011;11412;50.802;4.350;2023-04-24T13:22:04;6.43;;;3.28;;
22490;SDS011;11412;50.802;4.350;2023-04-24T13:24:30;3.80;;;3.00;;
22490;SDS011;11412;50.802;4.350;2023-04-24T13:26:56;4.75;;;3.03;;
22490;SDS011;11412;50.802;4.350;2023-04-24T13:29:22;4.32;;;3.47;;
22490;SDS011;11412;50.802;4.350;2023-04-24T13:31:52;4.18;;;3.25;;
22490;SDS011;11412;50.802;4.350;2023-04-24T13:34:20;3.83;;;3.42;;
22490;SDS011;11412;50.802;4.350;2023-04-24T13:36:46;5.97;;;3.40;;
22490;SDS011;11412;50.802;4.350;2023-04-24T13:39:12;4.88;;;3.25;;
22490;SDS011;11412;50.802;4.350;2023-04-24T13:41:37;5.97;;;3.30;;
22490;SDS011;11412;50.802;4.350;2023-04-24T13:44:04;5.15;;;2.63;;
22490;SDS011;11412;50.802;4.350;2023-04-24T13:46:32;5.10;;;3.58;;
22490;SDS011;11412;50.802;4.350;2023-04-24T13:48:58;4.28;;;2.90;;
22490;SDS011;11412;50.802;4.350;2023-04-24T13:51:27;3.70;;;2.70;;
22490;SDS011;11412;50.802;4.350;2023-04-24T13:53:53;2.67;;;2.22;;
22490;SDS011;11412;50.802;4.350;2023-04-24T13:56:19;5.88;;;2.50;;
22490;SDS011;11412;50.802;4.350;2023-04-24T13:58:45;4.57;;;2.70;;
22490;SDS011;11412;50.802;4.350;2023-04-24T14:01:11;3.15;;;2.85;;
22490;SDS011;11412;50.802;4.350;2023-04-24T14:03:38;3.30;;;2.30;;
22490;SDS011;11412;50.802;4.350;2023-04-24T14:06:04;5.22;;;2.70;;
22490;SDS011;11412;50.802;4.350;2023-04-24T14:08:31;5.47;;;2.53;;
22490;SDS011;11412;50.802;4.350;2023-04-24T14:10:57;7.57;;;2.58;;
22490;SDS011;11412;50.802;4.350;2023-04-24T14:13:23;6.20;;;2.83;;
22490;SDS011;11412;50.802;4.350;2023-04-24T14:15:49;3.90;;;2.50;;
22490;SDS011;11412;50.802;4.350;2023-04-24T14:18:15;3.92;;;2.20;;
22490;SDS011;11412;50.802;4.350;2023-04-24T14:20:40;3.03;;;2.17;;
22490;SDS011;11412;50.802;4.350;2023-04-24T14:23:06;3.28;;;2.30;;
22490;SDS011;11412;50.802;4.350;2023-04-24T14:25:32;4.05;;;2.00;;
22490;SDS011;11412;50.802;4.350;2023-04-24T14:27:58;3.55;;;2.28;;
22490;SDS011;11412;50.802;4.350;2023-04-24T14:30:23;3.75;;;1.88;;
22490;SDS011;11412;50.802;4.350;2023-04-24T14:32:49;1.60;;;1.50;;
22490;SDS011;11412;50.802;4.350;2023-04-24T14:35:15;4.68;;;2.00;;
22490;SDS011;11412;50.802;4.350;2023-04-24T14:37:41;5.50;;;1.88;;
22490;SDS011;11412;50.802;4.350;2023-04-24T14:40:07;4.45;;;2.10;;
22490;SDS011;11412;50.802;4.350;2023-04-24T14:42:34;5.72;;;1.92;;
22490;SDS011;11412;50.802;4.350;2023-04-24T14:45:00;2.88;;;1.83;;
22490;SDS011;11412;50.802;4.350;2023-04-24T14:47:26;2.05;;;1.50;;
22490;SDS011;11412;50.802;4.350;2023-04-24T14:49:52;2.55;;;1.77;;